Time;durP1;ratioP1;P1;durP2;ratioP2;P2;SDS_P1;SDS_P2;PMS_P1;PMS_P2;Temp;Humidity;BMP_temperature;BMP_pressure;BME280_temperature;BME280_humidity;BME280_pressure;Samples;Min_cycle;Max_cycle;Signal;HPM_P1;HPM_P2
2022/01/04 00:02:16;;;;;;;7.20;3.35;;;;;;;;;;6272954;22;20530;-68
2022/01/04 00:04:43;;;;;;;9.60;3.97;;;;;;;;;;6271946;22;20019;-64
2022/01/04 00:07:09;;;;;;;7.43;3.30;;;;;;;;;;6272053;22;20003;-68
2022/01/04 00:09:39;;;;;;;5.43;2.50;;;;;;;;;;6272800;22;20011;-65
2022/01/04 00:14:51;;;;;;;5.72;2.75;;;;;;;;;;6273659;22;20022;-67
2022/01/04 00:17:17;;;;;;;9.57;2.90;;;;;;;;;;6270699;22;20007;-70
2022/01/04 00:19:43;;;;;;;3.78;2.30;;;;;;;;;;6272497;22;20019;-67
2022/01/04 00:22:09;;;;;;;4.88;2.35;;;;;;;;;;6272228;22;20465;-67
2022/01/04 00:24:36;;;;;;;4.60;2.35;;;;;;;;;;6272731;22;20015;-68
2022/01/04 00:27:02;;;;;;;5.63;3.33;;;;;;;;;;6273345;22;20049;-69
2022/01/04 00:29:28;;;;;;;4.70;2.50;;;;;;;;;;6273285;22;20007;-68
2022/01/04 00:31:54;;;;;;;6.18;2.65;;;;;;;;;;6271489;22;20011;-67
2022/01/04 00:34:20;;;;;;;7.15;2.58;;;;;;;;;;6272038;22;20397;-67
2022/01/04 00:36:47;;;;;;;3.58;2.25;;;;;;;;;;6270670;22;20012;-66
2022/01/04 00:39:13;;;;;;;6.90;2.60;;;;;;;;;;6274337;22;20011;-69
2022/01/04 00:41:39;;;;;;;7.05;2.60;;;;;;;;;;6271081;22;20015;-68
2022/01/04 00:44:05;;;;;;;8.40;2.60;;;;;;;;;;6272480;22;20003;-65
2022/01/04 00:46:31;;;;;;;5.93;2.95;;;;;;;;;;6271249;22;20468;-67
2022/01/04 00:49:10;;;;;;;6.25;2.55;;;;;;;;;;6269540;22;20007;-67
2022/01/04 00:51:37;;;;;;;8.15;2.95;;;;;;;;;;6271812;22;20433;-67
2022/01/04 00:54:03;;;;;;;6.90;2.58;;;;;;;;;;6272510;22;20000;-68
2022/01/04 00:56:29;;;;;;;3.10;2.10;;;;;;;;;;6272213;22;20011;-67
2022/01/04 00:58:55;;;;;;;6.65;2.30;;;;;;;;;;6270382;22;20030;-64
2022/01/04 01:01:21;;;;;;;9.05;2.72;;;;;;;;;;6275298;22;20006;-67
2022/01/04 01:03:47;;;;;;;6.95;2.50;;;;;;;;;;6272853;22;20008;-69
2022/01/04 01:06:14;;;;;;;10.68;2.80;;;;;;;;;;6272313;22;20299;-67
2022/01/04 01:08:40;;;;;;;8.00;2.58;;;;;;;;;;6271411;22;20057;-64
2022/01/04 01:11:08;;;;;;;8.13;2.60;;;;;;;;;;6271787;22;20000;-68
2022/01/04 01:13:34;;;;;;;3.83;2.47;;;;;;;;;;6272378;22;20000;-68
2022/01/04 01:16:01;;;;;;;10.35;2.80;;;;;;;;;;6272456;22;20004;-67
2022/01/04 01:18:27;;;;;;;7.88;2.78;;;;;;;;;;6271349;22;19996;-68
2022/01/04 01:20:53;;;;;;;4.78;2.63;;;;;;;;;;6272819;22;20004;-63
2022/01/04 01:23:20;;;;;;;4.32;2.30;;;;;;;;;;6271533;22;20465;-67
2022/01/04 01:25:47;;;;;;;3.80;2.33;;;;;;;;;;6272297;22;20043;-67
2022/01/04 01:28:14;;;;;;;6.88;3.03;;;;;;;;;;6271210;22;20000;-68
2022/01/04 01:30:41;;;;;;;6.20;2.97;;;;;;;;;;6272926;22;19996;-68
2022/01/04 01:33:07;;;;;;;8.25;2.95;;;;;;;;;;6271011;22;20008;-67
2022/01/04 01:35:34;;;;;;;3.83;2.15;;;;;;;;;;6272285;22;20004;-68
2022/01/04 01:38:00;;;;;;;6.90;3.70;;;;;;;;;;6272616;22;20015;-67
2022/01/04 01:40:27;;;;;;;8.38;4.03;;;;;;;;;;6274534;22;20369;-68
2022/01/04 01:42:53;;;;;;;5.43;2.63;;;;;;;;;;6271348;22;20030;-68
2022/01/04 01:45:21;;;;;;;8.30;3.08;;;;;;;;;;6275177;22;20003;-63
2022/01/04 01:47:47;;;;;;;6.35;4.55;;;;;;;;;;6271972;22;20000;-67
2022/01/04 01:50:14;;;;;;;6.97;2.83;;;;;;;;;;6273031;22;20022;-65
2022/01/04 01:52:40;;;;;;;6.47;2.97;;;;;;;;;;6271364;22;20445;-66
2022/01/04 01:55:07;;;;;;;5.22;3.20;;;;;;;;;;6272109;22;20252;-69
2022/01/04 01:57:33;;;;;;;7.22;3.00;;;;;;;;;;6276669;22;20492;-62
2022/01/04 01:59:59;;;;;;;5.63;2.65;;;;;;;;;;6273335;22;20070;-68
2022/01/04 02:02:25;;;;;;;7.25;2.50;;;;;;;;;;6270722;22;20004;-67
2022/01/04 02:04:51;;;;;;;11.90;3.45;;;;;;;;;;6271799;22;20311;-68
2022/01/04 02:07:20;;;;;;;5.60;3.10;;;;;;;;;;6270605;22;20115;-67
2022/01/04 02:09:55;;;;;;;7.97;2.72;;;;;;;;;;6272755;22;20047;-68
2022/01/04 02:12:21;;;;;;;;;;;;;;;;;;6271891;22;20031;-65
2022/01/04 02:14:51;;;;;;;6.28;2.90;;;;;;;;;;6271690;22;19964;-67
2022/01/04 02:17:17;;;;;;;8.90;2.58;;;;;;;;;;6271163;22;20000;-66
2022/01/04 02:19:43;;;;;;;6.47;2.95;;;;;;;;;;6270476;22;20023;-67
2022/01/04 02:22:09;;;;;;;8.30;2.60;;;;;;;;;;6272056;22;20034;-67
2022/01/04 02:24:35;;;;;;;8.48;2.50;;;;;;;;;;6271180;22;20007;-66
2022/01/04 02:27:01;;;;;;;5.93;2.63;;;;;;;;;;6271317;22;20067;-67
2022/01/04 02:29:28;;;;;;;6.43;2.60;;;;;;;;;;6273320;22;20026;-67
2022/01/04 02:31:54;;;;;;;9.82;2.70;;;;;;;;;;6273240;22;20339;-67
2022/01/04 02:34:20;;;;;;;8.98;2.88;;;;;;;;;;6273407;22;20008;-67
2022/01/04 02:36:46;;;;;;;6.93;3.22;;;;;;;;;;6272832;22;20010;-68
2022/01/04 02:39:12;;;;;;;9.25;2.78;;;;;;;;;;6273138;22;20074;-67
2022/01/04 02:41:38;;;;;;;8.38;2.63;;;;;;;;;;6276272;22;20307;-67
2022/01/04 02:44:04;;;;;;;8.25;2.75;;;;;;;;;;6271227;22;20004;-67
2022/01/04 02:46:31;;;;;;;9.35;2.83;;;;;;;;;;6272730;22;19999;-66
2022/01/04 02:48:57;;;;;;;6.90;3.28;;;;;;;;;;6273720;22;20003;-67
2022/01/04 02:51:23;;;;;;;6.47;2.55;;;;;;;;;;6272783;22;20031;-68
2022/01/04 02:53:50;;;;;;;5.88;2.65;;;;;;;;;;6273903;22;20007;-66
2022/01/04 02:56:16;;;;;;;7.63;2.58;;;;;;;;;;6272314;22;20008;-66
2022/01/04 02:58:42;;;;;;;8.43;2.80;;;;;;;;;;6273527;22;20070;-67
2022/01/04 03:01:09;;;;;;;4.80;2.22;;;;;;;;;;6271419;22;20529;-65
2022/01/04 03:03:35;;;;;;;5.78;3.53;;;;;;;;;;6274892;22;20049;-68
2022/01/04 03:06:01;;;;;;;11.13;3.05;;;;;;;;;;6272068;22;20019;-68
2022/01/04 03:08:27;;;;;;;4.60;2.20;;;;;;;;;;6272866;22;19999;-66
2022/01/04 03:10:53;;;;;;;7.43;3.13;;;;;;;;;;6271864;22;19999;-67
2022/01/04 03:13:19;;;;;;;4.78;2.30;;;;;;;;;;6275750;22;20003;-65
2022/01/04 03:15:45;;;;;;;9.10;2.50;;;;;;;;;;6272825;22;20427;-68
2022/01/04 03:18:12;;;;;;;5.18;2.67;;;;;;;;;;6272843;22;20430;-68
2022/01/04 03:20:38;;;;;;;5.50;2.83;;;;;;;;;;6270248;22;20484;-68
2022/01/04 03:23:08;;;;;;;9.48;2.80;;;;;;;;;;6273321;22;20000;-69
2022/01/04 03:25:35;;;;;;;4.97;2.70;;;;;;;;;;6271858;22;20649;-69
2022/01/04 03:28:01;;;;;;;7.90;2.50;;;;;;;;;;6273398;22;19999;-65
2022/01/04 03:30:27;;;;;;;4.63;2.17;;;;;;;;;;6272085;22;20441;-67
2022/01/04 03:32:54;;;;;;;6.57;2.60;;;;;;;;;;6272535;22;20329;-64
2022/01/04 03:35:21;;;;;;;6.15;2.20;;;;;;;;;;6276123;22;20029;-66
2022/01/04 03:37:47;;;;;;;3.95;2.63;;;;;;;;;;6272550;22;20007;-65
2022/01/04 03:40:13;;;;;;;5.13;2.17;;;;;;;;;;6271223;22;20420;-67
2022/01/04 03:42:40;;;;;;;6.38;2.78;;;;;;;;;;6271580;22;20090;-67
2022/01/04 03:45:06;;;;;;;6.70;2.40;;;;;;;;;;6273465;22;20075;-67
2022/01/04 03:47:33;;;;;;;5.88;3.28;;;;;;;;;;6270727;22;20444;-67
2022/01/04 03:49:59;;;;;;;10.65;3.20;;;;;;;;;;6273257;22;20003;-68
2022/01/04 03:52:25;;;;;;;7.53;2.33;;;;;;;;;;6272041;22;20012;-67
2022/01/04 03:54:52;;;;;;;4.57;2.20;;;;;;;;;;6272722;22;20011;-67
2022/01/04 03:57:18;;;;;;;5.65;2.35;;;;;;;;;;6272842;22;20010;-67
2022/01/04 03:59:44;;;;;;;7.35;2.45;;;;;;;;;;6272942;22;20438;-67
2022/01/04 04:02:10;;;;;;;4.07;2.33;;;;;;;;;;6271682;22;20087;-68
2022/01/04 04:04:36;;;;;;;6.65;2.65;;;;;;;;;;6272719;22;20007;-68
2022/01/04 04:07:02;;;;;;;5.88;2.40;;;;;;;;;;6272319;22;20504;-68
2022/01/04 04:09:30;;;;;;;5.90;2.20;;;;;;;;;;6272438;22;20437;-67
2022/01/04 04:11:56;;;;;;;9.65;3.10;;;;;;;;;;6272296;22;20031;-67
2022/01/04 04:14:22;;;;;;;12.40;2.85;;;;;;;;;;6272761;22;20003;-68
2022/01/04 04:16:48;;;;;;;5.75;2.63;;;;;;;;;;6272475;22;20011;-67
2022/01/04 04:19:15;;;;;;;5.20;2.28;;;;;;;;;;6268749;22;20482;-68
2022/01/04 04:21:41;;;;;;;2.10;1.90;;;;;;;;;;6272345;22;20027;-67
2022/01/04 04:24:07;;;;;;;4.50;2.30;;;;;;;;;;6271103;22;20007;-67
2022/01/04 04:26:33;;;;;;;3.83;2.42;;;;;;;;;;6272912;22;20065;-67
2022/01/04 04:28:59;;;;;;;6.60;2.70;;;;;;;;;;6271779;22;20007;-67
2022/01/04 04:31:25;;;;;;;4.35;2.30;;;;;;;;;;6272249;22;20004;-66
2022/01/04 04:33:51;;;;;;;5.15;2.78;;;;;;;;;;6271498;22;20438;-67
2022/01/04 04:36:17;;;;;;;5.03;2.40;;;;;;;;;;6272710;22;20327;-67
2022/01/04 04:38:43;;;;;;;3.97;2.28;;;;;;;;;;6272013;22;20011;-67
2022/01/04 04:41:09;;;;;;;4.60;2.15;;;;;;;;;;6273251;22;20014;-68
2022/01/04 04:43:35;;;;;;;3.03;2.22;;;;;;;;;;6270265;22;20006;-68
2022/01/04 04:46:01;;;;;;;2.97;2.08;;;;;;;;;;6272718;22;20403;-67
2022/01/04 04:48:28;;;;;;;8.82;2.50;;;;;;;;;;6271715;22;20000;-67
2022/01/04 04:50:54;;;;;;;8.65;2.83;;;;;;;;;;6272422;22;20307;-66
2022/01/04 04:53:20;;;;;;;5.28;2.92;;;;;;;;;;6272753;22;20342;-67
2022/01/04 04:55:46;;;;;;;4.75;2.08;;;;;;;;;;6271185;22;20102;-67
2022/01/04 04:58:12;;;;;;;3.28;2.00;;;;;;;;;;6272672;22;20007;-67
2022/01/04 05:00:39;;;;;;;5.13;2.22;;;;;;;;;;6271456;22;20003;-63
2022/01/04 05:03:05;;;;;;;6.55;2.40;;;;;;;;;;6272374;22;20003;-67
2022/01/04 05:05:31;;;;;;;5.60;2.80;;;;;;;;;;6270360;22;20002;-68
2022/01/04 05:07:57;;;;;;;5.50;2.72;;;;;;;;;;6272673;22;20007;-65
2022/01/04 05:10:23;;;;;;;5.45;2.28;;;;;;;;;;6270670;22;20003;-68
2022/01/04 05:12:49;;;;;;;10.18;2.50;;;;;;;;;;6272076;22;20063;-68
2022/01/04 05:15:15;;;;;;;3.63;3.03;;;;;;;;;;6272412;22;20007;-68
2022/01/04 05:17:42;;;;;;;3.78;1.92;;;;;;;;;;6271487;22;20331;-65
2022/01/04 05:20:08;;;;;;;4.28;2.10;;;;;;;;;;6270753;22;20004;-65
2022/01/04 05:22:34;;;;;;;4.93;2.35;;;;;;;;;;6271919;22;20007;-67
2022/01/04 05:25:00;;;;;;;7.82;2.20;;;;;;;;;;6271557;22;20361;-67
2022/01/04 05:27:26;;;;;;;10.88;2.55;;;;;;;;;;6272030;22;20066;-66
2022/01/04 05:29:52;;;;;;;6.38;2.17;;;;;;;;;;6271932;22;20000;-66
2022/01/04 05:32:18;;;;;;;7.07;2.33;;;;;;;;;;6272125;22;20004;-69
2022/01/04 05:34:44;;;;;;;3.65;2.00;;;;;;;;;;6272756;22;20038;-67
2022/01/04 05:37:11;;;;;;;5.18;2.40;;;;;;;;;;6271264;22;20430;-66
2022/01/04 05:39:37;;;;;;;12.15;2.88;;;;;;;;;;6272448;22;20034;-67
2022/01/04 05:42:03;;;;;;;6.20;2.33;;;;;;;;;;6271979;22;20030;-67
2022/01/04 05:44:29;;;;;;;5.53;2.15;;;;;;;;;;6271689;22;20286;-65
2022/01/04 05:46:55;;;;;;;4.07;2.33;;;;;;;;;;6270878;22;20031;-67
2022/01/04 05:49:21;;;;;;;5.38;2.50;;;;;;;;;;6271068;22;19996;-67
2022/01/04 05:51:47;;;;;;;4.32;2.38;;;;;;;;;;6271465;22;20452;-67
2022/01/04 05:54:14;;;;;;;2.63;1.95;;;;;;;;;;6269499;22;20008;-70
2022/01/04 05:56:40;;;;;;;6.80;2.35;;;;;;;;;;6271795;22;20031;-65
2022/01/04 05:59:06;;;;;;;8.32;2.28;;;;;;;;;;6271533;22;20077;-66
2022/01/04 06:01:32;;;;;;;5.97;2.85;;;;;;;;;;6271053;22;20008;-67
2022/01/04 06:03:58;;;;;;;6.25;2.28;;;;;;;;;;6272659;22;20041;-68
2022/01/04 06:06:24;;;;;;;4.55;2.35;;;;;;;;;;6273812;22;19996;-68
2022/01/04 06:08:51;;;;;;;7.93;2.38;;;;;;;;;;6272870;22;20424;-65
2022/01/04 06:16:46;;;;;;;3.90;2.20;;;;;;;;;;6274868;22;20296;-65
2022/01/04 06:19:12;;;;;;;6.22;2.38;;;;;;;;;;6272954;22;19999;-66
2022/01/04 06:21:39;;;;;;;7.10;2.53;;;;;;;;;;6273578;22;20004;-65
2022/01/04 06:24:05;;;;;;;5.65;2.25;;;;;;;;;;6272419;22;20452;-66
2022/01/04 06:26:31;;;;;;;7.25;2.60;;;;;;;;;;6273691;22;20311;-67
2022/01/04 06:28:57;;;;;;;6.38;2.40;;;;;;;;;;6271240;22;20054;-68
2022/01/04 06:31:26;;;;;;;4.70;2.20;;;;;;;;;;6273304;22;20074;-67
2022/01/04 06:33:52;;;;;;;6.15;2.47;;;;;;;;;;6272528;22;20026;-68
2022/01/04 06:36:18;;;;;;;5.68;2.15;;;;;;;;;;6273109;22;20000;-66
2022/01/04 06:38:44;;;;;;;5.15;2.17;;;;;;;;;;6272741;22;20003;-67
2022/01/04 06:41:10;;;;;;;7.13;2.40;;;;;;;;;;6273443;22;20004;-67
2022/01/04 06:43:36;;;;;;;7.03;2.95;;;;;;;;;;6275493;22;20010;-64
2022/01/04 06:46:02;;;;;;;5.03;2.33;;;;;;;;;;6281545;22;20014;-68
2022/01/04 06:48:28;;;;;;;5.82;2.40;;;;;;;;;;6272595;22;20598;-66
2022/01/04 06:50:54;;;;;;;3.72;2.50;;;;;;;;;;6273906;22;19996;-67
2022/01/04 06:53:21;;;;;;;4.97;2.47;;;;;;;;;;6273081;22;20014;-67
2022/01/04 06:55:50;;;;;;;8.10;2.38;;;;;;;;;;6273616;22;20035;-67
2022/01/04 06:58:16;;;;;;;6.35;2.35;;;;;;;;;;6274328;22;20000;-68
2022/01/04 07:00:42;;;;;;;5.90;2.20;;;;;;;;;;6273051;22;20014;-67
2022/01/04 07:03:08;;;;;;;5.00;2.20;;;;;;;;;;6272743;22;20004;-67
2022/01/04 07:05:35;;;;;;;7.07;2.85;;;;;;;;;;6269675;22;19996;-67
2022/01/04 07:08:04;;;;;;;5.38;2.28;;;;;;;;;;6273592;22;20075;-66
2022/01/04 07:10:30;;;;;;;7.82;2.33;;;;;;;;;;6273499;22;20026;-67
2022/01/04 07:12:56;;;;;;;8.15;2.90;;;;;;;;;;6272294;22;20008;-66
2022/01/04 07:15:22;;;;;;;7.57;2.90;;;;;;;;;;6272922;22;20082;-67
2022/01/04 07:17:49;;;;;;;4.85;2.70;;;;;;;;;;6272208;22;20011;-68
2022/01/04 07:20:15;;;;;;;6.45;2.65;;;;;;;;;;6275393;22;20031;-68
2022/01/04 07:22:42;;;;;;;9.52;3.15;;;;;;;;;;6276490;22;20296;-64
2022/01/04 07:25:08;;;;;;;5.50;1.95;;;;;;;;;;6271261;22;20024;-67
2022/01/04 07:27:34;;;;;;;5.07;2.20;;;;;;;;;;6271003;22;19996;-66
2022/01/04 07:30:00;;;;;;;7.53;2.40;;;;;;;;;;6276162;22;20023;-68
2022/01/04 07:32:27;;;;;;;5.57;2.45;;;;;;;;;;6271113;22;20004;-67
2022/01/04 07:34:53;;;;;;;9.20;2.63;;;;;;;;;;6272301;22;20007;-67
2022/01/04 07:37:19;;;;;;;4.57;2.50;;;;;;;;;;6271341;22;20003;-68
2022/01/04 07:39:45;;;;;;;7.88;2.70;;;;;;;;;;6271184;22;20014;-69
2022/01/04 07:42:11;;;;;;;5.00;2.35;;;;;;;;;;6271727;22;20004;-66
2022/01/04 07:44:37;;;;;;;6.07;2.30;;;;;;;;;;6272116;22;20003;-67
2022/01/04 07:47:03;;;;;;;6.88;2.50;;;;;;;;;;6271884;22;20000;-67
2022/01/04 07:49:29;;;;;;;4.90;2.20;;;;;;;;;;6272238;22;20322;-65
2022/01/04 07:51:55;;;;;;;6.40;2.67;;;;;;;;;;6271749;22;20035;-67
2022/01/04 07:54:22;;;;;;;6.63;3.00;;;;;;;;;;6271416;22;20000;-63
2022/01/04 07:56:48;;;;;;;7.93;2.53;;;;;;;;;;6271425;22;20492;-69
2022/01/04 07:59:14;;;;;;;7.75;2.30;;;;;;;;;;6271512;22;20007;-62
2022/01/04 08:01:40;;;;;;;10.88;3.38;;;;;;;;;;6272540;22;20453;-67
2022/01/04 08:04:07;;;;;;;8.38;3.13;;;;;;;;;;6270767;22;20373;-67
2022/01/04 08:06:33;;;;;;;5.93;2.58;;;;;;;;;;6272785;22;20028;-66
2022/01/04 08:08:59;;;;;;;7.55;3.80;;;;;;;;;;6271616;22;20532;-65
2022/01/04 08:11:26;;;;;;;6.07;2.97;;;;;;;;;;6272380;22;20002;-65
2022/01/04 08:13:53;;;;;;;6.03;2.58;;;;;;;;;;6270446;22;20000;-67
2022/01/04 08:16:19;;;;;;;6.35;2.63;;;;;;;;;;6272082;22;19999;-67
2022/01/04 08:18:45;;;;;;;4.15;2.22;;;;;;;;;;6269222;22;20369;-67
2022/01/04 08:21:12;;;;;;;7.20;3.00;;;;;;;;;;6272311;22;20042;-67
2022/01/04 08:23:38;;;;;;;9.32;3.58;;;;;;;;;;6271513;22;20010;-67
2022/01/04 08:26:04;;;;;;;6.00;3.90;;;;;;;;;;6271532;22;19996;-65
2022/01/04 08:28:30;;;;;;;4.38;3.42;;;;;;;;;;6271492;22;20003;-68
2022/01/04 08:30:56;;;;;;;8.77;2.83;;;;;;;;;;6271855;22;19999;-68
2022/01/04 08:33:22;;;;;;;6.45;2.65;;;;;;;;;;6271694;22;20023;-67
2022/01/04 08:35:49;;;;;;;11.82;2.72;;;;;;;;;;6276909;22;20015;-66
2022/01/04 08:38:15;;;;;;;9.48;3.13;;;;;;;;;;6274037;22;20028;-68
2022/01/04 08:40:41;;;;;;;13.20;2.60;;;;;;;;;;6272449;22;20494;-67
2022/01/04 08:43:08;;;;;;;7.38;2.92;;;;;;;;;;6271793;22;20038;-66
2022/01/04 08:45:35;;;;;;;5.97;2.17;;;;;;;;;;6272619;22;20054;-61
2022/01/04 08:48:01;;;;;;;14.70;2.97;;;;;;;;;;6271917;22;20076;-67
2022/01/04 08:50:27;;;;;;;8.40;2.83;;;;;;;;;;6271605;22;20000;-66
2022/01/04 08:52:54;;;;;;;8.15;3.53;;;;;;;;;;6272461;22;20053;-64
2022/01/04 08:55:20;;;;;;;4.93;2.63;;;;;;;;;;6273844;22;20472;-67
2022/01/04 08:57:46;;;;;;;8.95;2.70;;;;;;;;;;6273568;22;20438;-67
2022/01/04 09:00:13;;;;;;;6.88;2.90;;;;;;;;;;6269620;22;20007;-68
2022/01/04 09:02:39;;;;;;;7.10;2.70;;;;;;;;;;6271857;22;20315;-66
2022/01/04 09:05:06;;;;;;;6.20;3.47;;;;;;;;;;6271070;22;20033;-67
2022/01/04 09:07:32;;;;;;;7.97;3.10;;;;;;;;;;6271670;22;20064;-66
2022/01/04 09:09:58;;;;;;;6.40;3.10;;;;;;;;;;6270702;22;20003;-68
2022/01/04 09:12:30;;;;;;;16.95;6.00;;;;;;;;;;6271647;22;20015;-67
2022/01/04 09:15:04;;;;;;;17.80;7.93;;;;;;;;;;6269350;22;19995;-69
2022/01/04 09:20:29;;;;;;;15.65;5.15;;;;;;;;;;6203753;22;20069;-65
2022/01/04 09:22:56;;;;;;;20.00;8.30;;;;;;;;;;6271868;22;20004;-68
2022/01/04 09:25:22;;;;;;;16.42;8.60;;;;;;;;;;6270019;22;20058;-67
2022/01/04 09:27:50;;;;;;;8.75;4.60;;;;;;;;;;6272241;22;20023;-68
2022/01/04 09:30:16;;;;;;;12.90;4.53;;;;;;;;;;6270699;22;20000;-66
2022/01/04 09:32:43;;;;;;;8.55;2.90;;;;;;;;;;6271418;22;20008;-67
2022/01/04 09:35:11;;;;;;;9.77;3.75;;;;;;;;;;6269598;22;20057;-68
2022/01/04 09:37:37;;;;;;;15.85;4.95;;;;;;;;;;6271722;22;20003;-68
2022/01/04 09:40:03;;;;;;;9.45;3.88;;;;;;;;;;6274977;22;20004;-67
2022/01/04 09:42:31;;;;;;;9.60;3.75;;;;;;;;;;6273188;22;20101;-67
2022/01/04 09:44:57;;;;;;;7.25;3.22;;;;;;;;;;6273649;22;20316;-68
2022/01/04 09:47:23;;;;;;;8.70;3.22;;;;;;;;;;6273505;22;20434;-68
2022/01/04 09:49:49;;;;;;;10.30;3.15;;;;;;;;;;6273764;22;20000;-66
2022/01/04 09:52:19;;;;;;;6.30;3.40;;;;;;;;;;6273040;22;20091;-65
2022/01/04 09:54:47;;;;;;;9.18;3.38;;;;;;;;;;6273694;22;20000;-67
2022/01/04 09:57:16;;;;;;;7.13;3.22;;;;;;;;;;6272094;22;20457;-68
2022/01/04 09:59:42;;;;;;;8.18;3.30;;;;;;;;;;6273624;22;20004;-64
2022/01/04 10:02:12;;;;;;;16.50;4.40;;;;;;;;;;6273286;22;19999;-68
2022/01/04 10:04:38;;;;;;;7.15;3.28;;;;;;;;;;6273533;22;20018;-67
2022/01/04 10:07:05;;;;;;;9.10;2.88;;;;;;;;;;6273340;22;20023;-67
2022/01/04 10:09:42;;;;;;;11.68;3.47;;;;;;;;;;6273644;22;20000;-68
2022/01/04 10:12:10;;;;;;;8.23;2.97;;;;;;;;;;6272650;22;20003;-68
2022/01/04 10:14:41;;;;;;;5.18;2.80;;;;;;;;;;6273094;22;20006;-61
2022/01/04 10:17:17;;;;;;;10.00;3.25;;;;;;;;;;6272949;22;20007;-65
2022/01/04 10:19:45;;;;;;;8.95;4.13;;;;;;;;;;6281652;22;20434;-67
2022/01/04 10:22:16;;;;;;;7.13;3.35;;;;;;;;;;6273755;22;20219;-67
2022/01/04 10:24:43;;;;;;;14.50;3.88;;;;;;;;;;6273295;22;20394;-66
2022/01/04 10:27:36;;;;;;;7.40;3.08;;;;;;;;;;6271996;22;20006;-66
2022/01/04 10:30:09;;;;;;;13.45;3.47;;;;;;;;;;6269297;22;20008;-68
2022/01/04 10:32:48;;;;;;;8.82;3.80;;;;;;;;;;6275938;22;20003;-72
2022/01/04 10:35:24;;;;;;;9.52;4.50;;;;;;;;;;6276539;22;20074;-68
2022/01/04 10:37:51;;;;;;;7.90;3.38;;;;;;;;;;6272855;22;20011;-68
2022/01/04 10:40:17;;;;;;;9.38;3.20;;;;;;;;;;6273758;22;20019;-68
2022/01/04 10:42:43;;;;;;;9.40;3.17;;;;;;;;;;6272166;22;20004;-66
2022/01/04 10:45:23;;;;;;;8.65;3.10;;;;;;;;;;6273884;22;20378;-67
2022/01/04 10:47:49;;;;;;;8.73;2.83;;;;;;;;;;6273626;22;20283;-67
2022/01/04 10:50:32;;;;;;;14.55;3.83;;;;;;;;;;6272336;22;20033;-67
2022/01/04 10:52:59;;;;;;;10.68;4.60;;;;;;;;;;6272846;22;20008;-67
2022/01/04 10:55:25;;;;;;;7.07;3.25;;;;;;;;;;6273126;22;20008;-67
2022/01/04 10:57:51;;;;;;;8.43;3.15;;;;;;;;;;6272198;22;20443;-65
2022/01/04 11:00:22;;;;;;;7.40;2.83;;;;;;;;;;6275042;22;20330;-67
2022/01/04 11:02:48;;;;;;;19.05;6.32;;;;;;;;;;6276532;22;20007;-66
2022/01/04 11:05:18;;;;;;;10.05;3.58;;;;;;;;;;6272298;22;20000;-67
2022/01/04 11:07:58;;;;;;;6.95;3.67;;;;;;;;;;6275473;22;20033;-67
2022/01/04 11:10:24;;;;;;;8.77;3.30;;;;;;;;;;6272662;22;20004;-70
2022/01/04 11:12:51;;;;;;;14.25;5.72;;;;;;;;;;6273176;22;20081;-67
2022/01/04 11:15:18;;;;;;;17.83;5.85;;;;;;;;;;6271325;22;20003;-67
2022/01/04 11:17:44;;;;;;;19.55;7.10;;;;;;;;;;6273085;22;20007;-64
2022/01/04 11:20:11;;;;;;;13.88;4.68;;;;;;;;;;6271124;22;20007;-65
2022/01/04 11:22:42;;;;;;;8.57;4.75;;;;;;;;;;6270693;22;20316;-67
2022/01/04 11:25:08;;;;;;;9.48;3.95;;;;;;;;;;6272195;22;20446;-67
2022/01/04 11:27:38;;;;;;;8.65;3.60;;;;;;;;;;6272372;22;20334;-66
2022/01/04 11:30:07;;;;;;;11.75;4.15;;;;;;;;;;6272152;22;20027;-68
2022/01/04 11:32:37;;;;;;;11.05;4.60;;;;;;;;;;6275520;22;20467;-69
2022/01/04 11:35:16;;;;;;;22.77;8.23;;;;;;;;;;6272570;22;20004;-65
2022/01/04 11:37:50;;;;;;;18.20;6.00;;;;;;;;;;6273920;22;20008;-67
2022/01/04 11:40:25;;;;;;;21.70;9.60;;;;;;;;;;6272099;22;20004;-64
2022/01/04 11:42:51;;;;;;;15.07;6.10;;;;;;;;;;6271656;22;20264;-68
2022/01/04 11:45:37;;;;;;;11.52;3.90;;;;;;;;;;6272580;22;20442;-65
2022/01/04 11:48:03;;;;;;;10.63;3.92;;;;;;;;;;6272358;22;20011;-63
2022/01/04 11:50:35;;;;;;;10.20;4.47;;;;;;;;;;6271374;22;19999;-68
2022/01/04 11:53:06;;;;;;;8.20;3.20;;;;;;;;;;6272767;22;20004;-68
2022/01/04 11:55:36;;;;;;;9.20;3.55;;;;;;;;;;6271842;22;20053;-68
2022/01/04 11:58:13;;;;;;;8.27;4.72;;;;;;;;;;6272868;22;19999;-69
2022/01/04 12:00:40;;;;;;;10.18;3.65;;;;;;;;;;6271920;22;20068;-67
2022/01/04 12:03:06;;;;;;;8.43;3.45;;;;;;;;;;6272718;22;20010;-68
2022/01/04 12:05:33;;;;;;;8.48;3.00;;;;;;;;;;6272509;22;20319;-68
2022/01/04 12:08:00;;;;;;;7.60;3.15;;;;;;;;;;6272083;22;20742;-64
2022/01/04 12:10:26;;;;;;;7.60;3.40;;;;;;;;;;6272199;22;20003;-69
2022/01/04 12:12:55;;;;;;;8.40;3.83;;;;;;;;;;6272479;22;20098;-66
2022/01/04 12:15:44;;;;;;;6.57;2.70;;;;;;;;;;6270841;22;20038;-66
2022/01/04 12:18:23;;;;;;;6.93;3.03;;;;;;;;;;6260742;22;20530;-69
2022/01/04 12:20:49;;;;;;;8.38;3.58;;;;;;;;;;6271954;22;20027;-69
2022/01/04 12:23:24;;;;;;;7.68;3.58;;;;;;;;;;6271932;22;20007;-68
2022/01/04 12:26:06;;;;;;;7.90;3.33;;;;;;;;;;6271657;22;20090;-69
2022/01/04 12:28:39;;;;;;;8.25;3.35;;;;;;;;;;6275235;22;20011;-69
2022/01/04 12:31:16;;;;;;;8.05;2.95;;;;;;;;;;6275425;22;20071;-64
2022/01/04 12:33:43;;;;;;;7.80;3.00;;;;;;;;;;6275305;22;20303;-68
2022/01/04 12:36:10;;;;;;;7.63;3.15;;;;;;;;;;6273084;22;20033;-67
2022/01/04 12:38:37;;;;;;;5.68;2.80;;;;;;;;;;6273318;22;20065;-67
2022/01/04 12:41:06;;;;;;;8.38;3.25;;;;;;;;;;6270133;22;20019;-69
2022/01/04 12:43:32;;;;;;;8.27;3.42;;;;;;;;;;6272211;22;20007;-69
2022/01/04 12:45:59;;;;;;;17.00;3.50;;;;;;;;;;6272249;22;20023;-68
2022/01/04 12:48:47;;;;;;;7.38;3.08;;;;;;;;;;6272085;22;20074;-68
2022/01/04 12:51:28;;;;;;;6.22;3.10;;;;;;;;;;6271636;22;20067;-67
2022/01/04 12:53:59;;;;;;;10.05;3.53;;;;;;;;;;6272150;22;20000;-68
2022/01/04 12:56:26;;;;;;;9.48;3.13;;;;;;;;;;6272091;22;19995;-66
2022/01/04 12:58:52;;;;;;;6.15;2.97;;;;;;;;;;6270769;22;20004;-65
2022/01/04 13:01:26;;;;;;;9.68;4.38;;;;;;;;;;6272143;22;20369;-66
2022/01/04 13:03:53;;;;;;;8.30;3.20;;;;;;;;;;6270849;22;20346;-67
2022/01/04 13:06:19;;;;;;;6.55;2.70;;;;;;;;;;6272659;22;20049;-68
2022/01/04 13:08:51;;;;;;;7.78;3.10;;;;;;;;;;6269793;22;20002;-67
2022/01/04 13:11:18;;;;;;;15.07;3.80;;;;;;;;;;6270394;22;20004;-64
2022/01/04 13:13:44;;;;;;;10.75;4.35;;;;;;;;;;6272595;22;20004;-68
2022/01/04 13:16:19;;;;;;;9.93;4.72;;;;;;;;;;6273237;22;20007;-65
2022/01/04 13:18:45;;;;;;;;;;;;;;;;;;6270225;22;20030;-67
2022/01/04 13:21:11;;;;;;;7.25;4.07;;;;;;;;;;6271536;22;19903;-67
2022/01/04 13:23:38;;;;;;;9.18;3.53;;;;;;;;;;6269590;22;20004;-65
2022/01/04 13:26:05;;;;;;;7.38;3.65;;;;;;;;;;6270995;22;20022;-67
2022/01/04 13:28:33;;;;;;;7.03;3.42;;;;;;;;;;6271013;22;20065;-68
2022/01/04 13:30:59;;;;;;;8.25;3.08;;;;;;;;;;6271664;22;20075;-68
2022/01/04 13:33:25;;;;;;;6.97;3.22;;;;;;;;;;6270214;22;20053;-68
2022/01/04 13:35:53;;;;;;;10.43;3.95;;;;;;;;;;6270066;22;19999;-68
2022/01/04 13:38:22;;;;;;;10.88;3.65;;;;;;;;;;6273990;22;20454;-65
2022/01/04 13:40:49;;;;;;;7.32;3.30;;;;;;;;;;6269729;22;20442;-66
2022/01/04 13:43:16;;;;;;;12.52;3.67;;;;;;;;;;6271431;22;20007;-69
2022/01/04 13:45:54;;;;;;;9.40;3.25;;;;;;;;;;6271175;22;20490;-68
2022/01/04 13:48:27;;;;;;;7.93;3.25;;;;;;;;;;6271824;22;20442;-67
2022/01/04 13:50:53;;;;;;;11.60;4.53;;;;;;;;;;6268428;22;20004;-69
2022/01/04 13:53:23;;;;;;;9.15;3.88;;;;;;;;;;6272063;22;20338;-69
2022/01/04 13:55:58;;;;;;;9.75;3.92;;;;;;;;;;6271403;22;20015;-69
2022/01/04 13:58:43;;;;;;;9.27;3.83;;;;;;;;;;6269384;22;20003;-68
2022/01/04 14:01:13;;;;;;;9.18;3.17;;;;;;;;;;6271377;22;20572;-69
2022/01/04 14:03:40;;;;;;;6.05;2.90;;;;;;;;;;6268171;22;20042;-65
2022/01/04 14:06:06;;;;;;;9.35;3.50;;;;;;;;;;6272546;22;20000;-69
2022/01/04 14:08:51;;;;;;;11.30;4.65;;;;;;;;;;6271057;22;20457;-68
2022/01/04 14:11:31;;;;;;;11.57;4.15;;;;;;;;;;6271555;22;20004;-68
2022/01/04 14:14:05;;;;;;;10.48;4.25;;;;;;;;;;6270434;22;19996;-68
2022/01/04 14:16:40;;;;;;;11.48;4.82;;;;;;;;;;6272364;22;19995;-67
2022/01/04 14:19:10;;;;;;;11.93;5.60;;;;;;;;;;6274415;22;20071;-69
2022/01/04 14:21:40;;;;;;;8.48;3.83;;;;;;;;;;6272059;22;20019;-67
2022/01/04 14:24:26;;;;;;;8.10;3.80;;;;;;;;;;6270602;22;20015;-65
2022/01/04 14:26:52;;;;;;;10.68;4.00;;;;;;;;;;6273806;22;20007;-68
2022/01/04 14:29:40;;;;;;;9.00;4.65;;;;;;;;;;6271295;22;20000;-68
2022/01/04 14:32:27;;;;;;;14.05;4.15;;;;;;;;;;6273686;22;20008;-68
2022/01/04 14:34:54;;;;;;;10.20;5.65;;;;;;;;;;6272775;22;20007;-67
2022/01/04 14:37:22;;;;;;;7.57;4.78;;;;;;;;;;6274405;22;20012;-67
2022/01/04 14:39:49;;;;;;;13.82;6.25;;;;;;;;;;6274050;22;20008;-68
2022/01/04 14:42:15;;;;;;;11.85;4.93;;;;;;;;;;6273883;22;20082;-67
2022/01/04 14:44:41;;;;;;;11.50;5.35;;;;;;;;;;6274007;22;20004;-68
2022/01/04 14:47:07;;;;;;;9.55;5.07;;;;;;;;;;6274304;22;20006;-67
2022/01/04 14:49:33;;;;;;;12.98;5.07;;;;;;;;;;6272923;22;19999;-68
2022/01/04 14:52:01;;;;;;;9.23;5.65;;;;;;;;;;6272248;22;20004;-67
2022/01/04 14:54:27;;;;;;;7.88;5.55;;;;;;;;;;6273684;22;20011;-68
2022/01/04 14:56:53;;;;;;;10.45;5.88;;;;;;;;;;6271539;22;20077;-66